sensor_id;sensor_type;location;lat;lon;timestamp;P1;durP1;ratioP1;P2;durP2;ratioP2
40745;SDS011;26454;51.164;4.488;2023-08-20T00:01:19;12.35;;;4.32;;
40745;SDS011;26454;51.164;4.488;2023-08-20T00:03:47;8.60;;;3.88;;
40745;SDS011;26454;51.164;4.488;2023-08-20T00:06:15;10.05;;;4.15;;
40745;SDS011;26454;51.164;4.488;2023-08-20T00:08:41;12.13;;;4.10;;
40745;SDS011;26454;51.164;4.488;2023-08-20T00:11:07;16.48;;;4.80;;
40745;SDS011;26454;51.164;4.488;2023-08-20T00:13:34;13.57;;;5.75;;
40745;SDS011;26454;51.164;4.488;2023-08-20T00:16:02;9.30;;;3.88;;
40745;SDS011;26454;51.164;4.488;2023-08-20T00:18:28;12.38;;;3.70;;
40745;SDS011;26454;51.164;4.488;2023-08-20T00:20:54;15.30;;;3.42;;
40745;SDS011;26454;51.164;4.488;2023-08-20T00:23:21;12.93;;;3.92;;
40745;SDS011;26454;51.164;4.488;2023-08-20T00:25:47;9.55;;;3.65;;
40745;SDS011;26454;51.164;4.488;2023-08-20T00:28:13;12.60;;;3.35;;
40745;SDS011;26454;51.164;4.488;2023-08-20T00:30:39;11.57;;;4.38;;
40745;SDS011;26454;51.164;4.488;2023-08-20T00:33:06;9.52;;;3.15;;
40745;SDS011;26454;51.164;4.488;2023-08-20T00:35:32;11.80;;;3.20;;
40745;SDS011;26454;51.164;4.488;2023-08-20T00:37:58;10.25;;;3.50;;
40745;SDS011;26454;51.164;4.488;2023-08-20T00:40:24;17.40;;;4.22;;
40745;SDS011;26454;51.164;4.488;2023-08-20T00:42:50;12.80;;;5.65;;
40745;SDS011;26454;51.164;4.488;2023-08-20T00:45:16;10.85;;;4.03;;
40745;SDS011;26454;51.164;4.488;2023-08-20T00:47:43;11.48;;;4.10;;
40745;SDS011;26454;51.164;4.488;2023-08-20T00:50:14;8.95;;;3.40;;
40745;SDS011;26454;51.164;4.488;2023-08-20T00:52:40;11.70;;;4.05;;
40745;SDS011;26454;51.164;4.488;2023-08-20T00:55:07;9.48;;;3.03;;
40745;SDS011;26454;51.164;4.488;2023-08-20T00:57:34;10.93;;;4.03;;
40745;SDS011;26454;51.164;4.488;2023-08-20T01:00:01;7.32;;;3.40;;
40745;SDS011;26454;51.164;4.488;2023-08-20T01:02:31;7.30;;;3.28;;
40745;SDS011;26454;51.164;4.488;2023-08-20T01:04:58;9.82;;;3.83;;
40745;SDS011;26454;51.164;4.488;2023-08-20T01:07:27;12.77;;;4.10;;
40745;SDS011;26454;51.164;4.488;2023-08-20T01:12:32;8.07;;;4.00;;
40745;SDS011;26454;51.164;4.488;2023-08-20T01:15:00;10.70;;;4.22;;
40745;SDS011;26454;51.164;4.488;2023-08-20T01:17:26;16.05;;;5.13;;
40745;SDS011;26454;51.164;4.488;2023-08-20T01:19:52;10.75;;;4.28;;
40745;SDS011;26454;51.164;4.488;2023-08-20T01:22:27;9.07;;;4.50;;
40745;SDS011;26454;51.164;4.488;2023-08-20T01:27:49;7.00;;;3.60;;
40745;SDS011;26454;51.164;4.488;2023-08-20T01:30:18;11.40;;;5.45;;
40745;SDS011;26454;51.164;4.488;2023-08-20T01:32:46;7.45;;;3.75;;
40745;SDS011;26454;51.164;4.488;2023-08-20T01:35:13;6.75;;;3.15;;
40745;SDS011;26454;51.164;4.488;2023-08-20T01:37:40;6.70;;;3.42;;
40745;SDS011;26454;51.164;4.488;2023-08-20T01:40:06;9.18;;;4.20;;
40745;SDS011;26454;51.164;4.488;2023-08-20T01:42:35;12.88;;;4.57;;
40745;SDS011;26454;51.164;4.488;2023-08-20T01:45:01;12.63;;;4.03;;
40745;SDS011;26454;51.164;4.488;2023-08-20T01:47:27;10.00;;;3.97;;
40745;SDS011;26454;51.164;4.488;2023-08-20T01:49:53;11.68;;;3.80;;
40745;SDS011;26454;51.164;4.488;2023-08-20T01:52:19;13.35;;;3.63;;
40745;SDS011;26454;51.164;4.488;2023-08-20T01:54:45;8.77;;;3.63;;
40745;SDS011;26454;51.164;4.488;2023-08-20T01:57:11;11.02;;;3.55;;
40745;SDS011;26454;51.164;4.488;2023-08-20T01:59:38;9.73;;;4.20;;
40745;SDS011;26454;51.164;4.488;2023-08-20T02:02:04;10.18;;;3.45;;
40745;SDS011;26454;51.164;4.488;2023-08-20T02:04:31;7.82;;;3.42;;
40745;SDS011;26454;51.164;4.488;2023-08-20T02:06:57;13.75;;;4.35;;
40745;SDS011;26454;51.164;4.488;2023-08-20T02:09:23;8.93;;;3.70;;
40745;SDS011;26454;51.164;4.488;2023-08-20T02:11:50;10.23;;;5.20;;
40745;SDS011;26454;51.164;4.488;2023-08-20T02:14:16;13.10;;;5.30;;
40745;SDS011;26454;51.164;4.488;2023-08-20T02:16:42;12.80;;;5.85;;
40745;SDS011;26454;51.164;4.488;2023-08-20T02:19:08;12.18;;;4.82;;
40745;SDS011;26454;51.164;4.488;2023-08-20T02:21:34;11.95;;;4.28;;
40745;SDS011;26454;51.164;4.488;2023-08-20T02:24:00;8.43;;;4.05;;
40745;SDS011;26454;51.164;4.488;2023-08-20T02:26:26;8.55;;;4.10;;
40745;SDS011;26454;51.164;4.488;2023-08-20T02:28:52;10.85;;;4.78;;
40745;SDS011;26454;51.164;4.488;2023-08-20T02:31:18;6.68;;;3.83;;
40745;SDS011;26454;51.164;4.488;2023-08-20T02:33:44;9.68;;;4.13;;
40745;SDS011;26454;51.164;4.488;2023-08-20T02:36:10;12.35;;;5.10;;
40745;SDS011;26454;51.164;4.488;2023-08-20T02:38:36;9.15;;;4.57;;
40745;SDS011;26454;51.164;4.488;2023-08-20T02:41:02;14.60;;;5.65;;
40745;SDS011;26454;51.164;4.488;2023-08-20T02:43:29;10.07;;;4.47;;
40745;SDS011;26454;51.164;4.488;2023-08-20T02:45:55;10.35;;;4.22;;
40745;SDS011;26454;51.164;4.488;2023-08-20T02:48:21;15.55;;;5.28;;
40745;SDS011;26454;51.164;4.488;2023-08-20T02:50:52;10.35;;;4.88;;
40745;SDS011;26454;51.164;4.488;2023-08-20T02:53:18;9.85;;;5.68;;
40745;SDS011;26454;51.164;4.488;2023-08-20T02:55:44;9.07;;;4.53;;
40745;SDS011;26454;51.164;4.488;2023-08-20T02:58:10;12.82;;;5.22;;
40745;SDS011;26454;51.164;4.488;2023-08-20T03:00:36;10.93;;;4.93;;
40745;SDS011;26454;51.164;4.488;2023-08-20T03:03:02;9.65;;;4.93;;
40745;SDS011;26454;51.164;4.488;2023-08-20T03:05:31;12.10;;;4.85;;
40745;SDS011;26454;51.164;4.488;2023-08-20T03:07:57;8.52;;;4.38;;
40745;SDS011;26454;51.164;4.488;2023-08-20T03:10:23;13.25;;;5.65;;
40745;SDS011;26454;51.164;4.488;2023-08-20T03:12:49;8.90;;;4.45;;
40745;SDS011;26454;51.164;4.488;2023-08-20T03:15:15;9.52;;;4.60;;
40745;SDS011;26454;51.164;4.488;2023-08-20T03:17:41;8.05;;;4.20;;
40745;SDS011;26454;51.164;4.488;2023-08-20T03:20:08;13.65;;;5.57;;
40745;SDS011;26454;51.164;4.488;2023-08-20T03:22:36;10.75;;;4.50;;
40745;SDS011;26454;51.164;4.488;2023-08-20T03:25:02;16.13;;;5.72;;
40745;SDS011;26454;51.164;4.488;2023-08-20T03:27:28;19.52;;;5.82;;
40745;SDS011;26454;51.164;4.488;2023-08-20T03:29:55;12.57;;;5.07;;
40745;SDS011;26454;51.164;4.488;2023-08-20T03:32:21;15.57;;;5.05;;
40745;SDS011;26454;51.164;4.488;2023-08-20T03:34:47;13.10;;;5.13;;
40745;SDS011;26454;51.164;4.488;2023-08-20T03:37:13;16.50;;;5.85;;
40745;SDS011;26454;51.164;4.488;2023-08-20T03:39:39;13.93;;;5.47;;
40745;SDS011;26454;51.164;4.488;2023-08-20T03:42:05;10.98;;;4.75;;
40745;SDS011;26454;51.164;4.488;2023-08-20T03:44:31;9.20;;;4.32;;
40745;SDS011;26454;51.164;4.488;2023-08-20T03:46:57;12.75;;;4.32;;
40745;SDS011;26454;51.164;4.488;2023-08-20T03:49:23;8.55;;;3.63;;
40745;SDS011;26454;51.164;4.488;2023-08-20T03:51:50;7.72;;;4.40;;
40745;SDS011;26454;51.164;4.488;2023-08-20T03:54:16;11.95;;;4.57;;
40745;SDS011;26454;51.164;4.488;2023-08-20T03:56:42;9.90;;;4.03;;
40745;SDS011;26454;51.164;4.488;2023-08-20T03:59:08;8.18;;;4.53;;
40745;SDS011;26454;51.164;4.488;2023-08-20T04:01:34;9.38;;;4.68;;
40745;SDS011;26454;51.164;4.488;2023-08-20T04:04:02;9.32;;;3.85;;
40745;SDS011;26454;51.164;4.488;2023-08-20T04:06:28;14.57;;;5.38;;
40745;SDS011;26454;51.164;4.488;2023-08-20T04:08:54;9.38;;;4.72;;
40745;SDS011;26454;51.164;4.488;2023-08-20T04:11:20;11.57;;;4.82;;
40745;SDS011;26454;51.164;4.488;2023-08-20T04:13:46;8.60;;;4.60;;
40745;SDS011;26454;51.164;4.488;2023-08-20T04:16:13;10.13;;;4.15;;
40745;SDS011;26454;51.164;4.488;2023-08-20T04:18:39;6.97;;;4.05;;
40745;SDS011;26454;51.164;4.488;2023-08-20T04:21:05;6.05;;;3.97;;
40745;SDS011;26454;51.164;4.488;2023-08-20T04:23:32;11.70;;;6.03;;
40745;SDS011;26454;51.164;4.488;2023-08-20T04:25:58;20.70;;;6.72;;
40745;SDS011;26454;51.164;4.488;2023-08-20T04:28:24;12.82;;;6.18;;
40745;SDS011;26454;51.164;4.488;2023-08-20T04:30:53;14.43;;;5.65;;
40745;SDS011;26454;51.164;4.488;2023-08-20T04:33:19;11.10;;;5.00;;
40745;SDS011;26454;51.164;4.488;2023-08-20T04:35:45;12.60;;;5.50;;
40745;SDS011;26454;51.164;4.488;2023-08-20T04:38:12;14.73;;;6.65;;
40745;SDS011;26454;51.164;4.488;2023-08-20T04:40:38;9.38;;;4.25;;
40745;SDS011;26454;51.164;4.488;2023-08-20T04:43:04;9.20;;;5.18;;
40745;SDS011;26454;51.164;4.488;2023-08-20T04:45:30;12.02;;;4.95;;
40745;SDS011;26454;51.164;4.488;2023-08-20T04:47:56;13.18;;;4.97;;
40745;SDS011;26454;51.164;4.488;2023-08-20T04:50:22;16.33;;;5.47;;
40745;SDS011;26454;51.164;4.488;2023-08-20T04:52:48;16.50;;;5.80;;
40745;SDS011;26454;51.164;4.488;2023-08-20T04:55:14;24.25;;;6.72;;
40745;SDS011;26454;51.164;4.488;2023-08-20T04:57:41;16.15;;;5.38;;
40745;SDS011;26454;51.164;4.488;2023-08-20T05:00:07;13.25;;;4.75;;
40745;SDS011;26454;51.164;4.488;2023-08-20T05:02:34;14.50;;;6.05;;
40745;SDS011;26454;51.164;4.488;2023-08-20T05:05:01;12.80;;;4.78;;
40745;SDS011;26454;51.164;4.488;2023-08-20T05:07:27;12.68;;;4.60;;
40745;SDS011;26454;51.164;4.488;2023-08-20T05:09:54;6.68;;;3.85;;
40745;SDS011;26454;51.164;4.488;2023-08-20T05:12:20;12.55;;;4.95;;
40745;SDS011;26454;51.164;4.488;2023-08-20T05:14:46;9.68;;;4.60;;
40745;SDS011;26454;51.164;4.488;2023-08-20T05:17:12;12.80;;;5.50;;
40745;SDS011;26454;51.164;4.488;2023-08-20T05:19:38;13.20;;;5.43;;
40745;SDS011;26454;51.164;4.488;2023-08-20T05:22:04;10.05;;;5.72;;
40745;SDS011;26454;51.164;4.488;2023-08-20T05:24:30;14.55;;;5.25;;
40745;SDS011;26454;51.164;4.488;2023-08-20T05:27:03;14.35;;;5.47;;
40745;SDS011;26454;51.164;4.488;2023-08-20T05:29:30;18.27;;;6.30;;
40745;SDS011;26454;51.164;4.488;2023-08-20T05:31:56;12.85;;;5.00;;
40745;SDS011;26454;51.164;4.488;2023-08-20T05:34:22;10.73;;;5.38;;
40745;SDS011;26454;51.164;4.488;2023-08-20T05:36:48;7.18;;;4.00;;
40745;SDS011;26454;51.164;4.488;2023-08-20T05:39:14;14.57;;;5.82;;
40745;SDS011;26454;51.164;4.488;2023-08-20T05:41:40;12.88;;;6.25;;
40745;SDS011;26454;51.164;4.488;2023-08-20T05:44:06;16.08;;;5.45;;
40745;SDS011;26454;51.164;4.488;2023-08-20T05:46:33;10.63;;;5.05;;
40745;SDS011;26454;51.164;4.488;2023-08-20T05:48:59;9.40;;;4.78;;
40745;SDS011;26454;51.164;4.488;2023-08-20T05:51:25;9.98;;;4.78;;
40745;SDS011;26454;51.164;4.488;2023-08-20T05:53:51;12.43;;;5.57;;
40745;SDS011;26454;51.164;4.488;2023-08-20T05:56:17;6.97;;;4.65;;
40745;SDS011;26454;51.164;4.488;2023-08-20T05:58:43;9.60;;;4.80;;
40745;SDS011;26454;51.164;4.488;2023-08-20T06:01:09;10.18;;;4.63;;
40745;SDS011;26454;51.164;4.488;2023-08-20T06:03:35;8.27;;;4.13;;
40745;SDS011;26454;51.164;4.488;2023-08-20T06:06:01;10.95;;;5.57;;
40745;SDS011;26454;51.164;4.488;2023-08-20T06:08:28;12.57;;;4.90;;
40745;SDS011;26454;51.164;4.488;2023-08-20T06:10:54;13.60;;;5.70;;
40745;SDS011;26454;51.164;4.488;2023-08-20T06:13:20;11.73;;;4.80;;
40745;SDS011;26454;51.164;4.488;2023-08-20T06:15:46;15.52;;;5.18;;
40745;SDS011;26454;51.164;4.488;2023-08-20T06:18:12;14.68;;;4.93;;
40745;SDS011;26454;51.164;4.488;2023-08-20T06:20:38;11.18;;;3.85;;
40745;SDS011;26454;51.164;4.488;2023-08-20T06:23:04;14.48;;;3.95;;
40745;SDS011;26454;51.164;4.488;2023-08-20T06:25:30;9.52;;;4.22;;
40745;SDS011;26454;51.164;4.488;2023-08-20T06:27:56;10.63;;;3.72;;
40745;SDS011;26454;51.164;4.488;2023-08-20T06:30:22;15.25;;;4.45;;
40745;SDS011;26454;51.164;4.488;2023-08-20T06:32:48;11.05;;;4.00;;
40745;SDS011;26454;51.164;4.488;2023-08-20T06:35:14;13.73;;;4.00;;
40745;SDS011;26454;51.164;4.488;2023-08-20T06:37:40;9.98;;;4.22;;
40745;SDS011;26454;51.164;4.488;2023-08-20T06:40:07;14.13;;;3.90;;
40745;SDS011;26454;51.164;4.488;2023-08-20T06:42:33;10.25;;;4.03;;
40745;SDS011;26454;51.164;4.488;2023-08-20T06:44:59;7.10;;;3.65;;
40745;SDS011;26454;51.164;4.488;2023-08-20T06:47:25;10.30;;;3.83;;
40745;SDS011;26454;51.164;4.488;2023-08-20T06:49:51;10.98;;;3.58;;
40745;SDS011;26454;51.164;4.488;2023-08-20T06:52:17;13.40;;;3.42;;
40745;SDS011;26454;51.164;4.488;2023-08-20T06:54:44;7.60;;;2.72;;
40745;SDS011;26454;51.164;4.488;2023-08-20T06:57:10;13.85;;;3.58;;
40745;SDS011;26454;51.164;4.488;2023-08-20T06:59:36;9.52;;;3.38;;
40745;SDS011;26454;51.164;4.488;2023-08-20T07:02:02;9.68;;;2.75;;
40745;SDS011;26454;51.164;4.488;2023-08-20T07:04:28;8.65;;;2.40;;
40745;SDS011;26454;51.164;4.488;2023-08-20T07:06:54;9.27;;;2.70;;
40745;SDS011;26454;51.164;4.488;2023-08-20T07:09:21;8.05;;;2.72;;
40745;SDS011;26454;51.164;4.488;2023-08-20T07:11:47;11.93;;;3.55;;
40745;SDS011;26454;51.164;4.488;2023-08-20T07:14:13;9.00;;;2.60;;
40745;SDS011;26454;51.164;4.488;2023-08-20T07:16:39;9.73;;;3.65;;
40745;SDS011;26454;51.164;4.488;2023-08-20T07:19:05;6.85;;;2.50;;
40745;SDS011;26454;51.164;4.488;2023-08-20T07:21:31;7.05;;;2.85;;
40745;SDS011;26454;51.164;4.488;2023-08-20T07:23:57;14.65;;;2.65;;
40745;SDS011;26454;51.164;4.488;2023-08-20T07:26:23;7.47;;;2.22;;
40745;SDS011;26454;51.164;4.488;2023-08-20T07:28:49;7.30;;;2.45;;
40745;SDS011;26454;51.164;4.488;2023-08-20T07:31:24;6.57;;;2.47;;
40745;SDS011;26454;51.164;4.488;2023-08-20T07:33:50;9.48;;;3.30;;
40745;SDS011;26454;51.164;4.488;2023-08-20T07:36:17;13.05;;;2.58;;
40745;SDS011;26454;51.164;4.488;2023-08-20T07:38:43;7.63;;;2.63;;
40745;SDS011;26454;51.164;4.488;2023-08-20T07:41:10;12.00;;;3.08;;
40745;SDS011;26454;51.164;4.488;2023-08-20T07:43:37;7.55;;;2.65;;
40745;SDS011;26454;51.164;4.488;2023-08-20T07:46:03;9.05;;;3.10;;
40745;SDS011;26454;51.164;4.488;2023-08-20T07:48:29;6.40;;;2.47;;
40745;SDS011;26454;51.164;4.488;2023-08-20T07:50:55;8.43;;;2.10;;
40745;SDS011;26454;51.164;4.488;2023-08-20T07:53:21;8.93;;;2.25;;
40745;SDS011;26454;51.164;4.488;2023-08-20T07:55:47;5.95;;;1.98;;
40745;SDS011;26454;51.164;4.488;2023-08-20T07:58:14;5.47;;;1.90;;
40745;SDS011;26454;51.164;4.488;2023-08-20T08:00:40;6.35;;;1.88;;
40745;SDS011;26454;51.164;4.488;2023-08-20T08:03:06;5.07;;;1.80;;
40745;SDS011;26454;51.164;4.488;2023-08-20T08:05:34;5.90;;;2.20;;
40745;SDS011;26454;51.164;4.488;2023-08-20T08:08:00;7.53;;;2.25;;
40745;SDS011;26454;51.164;4.488;2023-08-20T08:10:26;6.45;;;2.00;;
40745;SDS011;26454;51.164;4.488;2023-08-20T08:12:52;10.15;;;2.42;;
40745;SDS011;26454;51.164;4.488;2023-08-20T08:15:18;6.97;;;2.33;;
40745;SDS011;26454;51.164;4.488;2023-08-20T08:17:44;5.00;;;2.40;;
40745;SDS011;26454;51.164;4.488;2023-08-20T08:20:10;7.35;;;2.58;;
40745;SDS011;26454;51.164;4.488;2023-08-20T08:22:36;5.00;;;2.53;;
40745;SDS011;26454;51.164;4.488;2023-08-20T08:25:03;5.10;;;2.00;;
40745;SDS011;26454;51.164;4.488;2023-08-20T08:27:29;5.88;;;2.10;;
40745;SDS011;26454;51.164;4.488;2023-08-20T08:29:55;8.10;;;2.22;;
40745;SDS011;26454;51.164;4.488;2023-08-20T08:32:21;5.22;;;1.60;;
40745;SDS011;26454;51.164;4.488;2023-08-20T08:34:47;7.55;;;2.00;;
40745;SDS011;26454;51.164;4.488;2023-08-20T08:37:14;6.97;;;1.88;;
40745;SDS011;26454;51.164;4.488;2023-08-20T08:39:40;6.80;;;2.00;;
40745;SDS011;26454;51.164;4.488;2023-08-20T08:42:07;6.95;;;2.00;;
40745;SDS011;26454;51.164;4.488;2023-08-20T08:44:33;5.10;;;1.77;;
40745;SDS011;26454;51.164;4.488;2023-08-20T08:47:00;2.72;;;1.70;;
40745;SDS011;26454;51.164;4.488;2023-08-20T08:49:27;4.13;;;1.25;;
40745;SDS011;26454;51.164;4.488;2023-08-20T08:51:56;2.58;;;1.20;;
40745;SDS011;26454;51.164;4.488;2023-08-20T08:54:23;6.88;;;2.08;;
40745;SDS011;26454;51.164;4.488;2023-08-20T08:56:50;6.10;;;1.65;;
40745;SDS011;26454;51.164;4.488;2023-08-20T08:59:16;5.57;;;1.83;;
40745;SDS011;26454;51.164;4.488;2023-08-20T09:01:42;3.53;;;1.40;;
40745;SDS011;26454;51.164;4.488;2023-08-20T09:04:09;4.47;;;1.83;;
40745;SDS011;26454;51.164;4.488;2023-08-20T09:06:45;3.95;;;1.50;;
40745;SDS011;26454;51.164;4.488;2023-08-20T09:09:11;3.92;;;1.40;;
40745;SDS011;26454;51.164;4.488;2023-08-20T09:11:38;5.90;;;1.70;;
40745;SDS011;26454;51.164;4.488;2023-08-20T09:14:04;2.55;;;1.10;;
40745;SDS011;26454;51.164;4.488;2023-08-20T09:16:30;3.58;;;1.55;;
40745;SDS011;26454;51.164;4.488;2023-08-20T09:18:58;4.57;;;1.30;;
40745;SDS011;26454;51.164;4.488;2023-08-20T09:21:26;6.22;;;1.50;;
40745;SDS011;26454;51.164;4.488;2023-08-20T09:23:55;6.47;;;1.60;;
40745;SDS011;26454;51.164;4.488;2023-08-20T09:26:21;3.80;;;1.85;;
40745;SDS011;26454;51.164;4.488;2023-08-20T09:28:47;4.95;;;1.60;;
40745;SDS011;26454;51.164;4.488;2023-08-20T09:31:14;4.28;;;1.20;;
40745;SDS011;26454;51.164;4.488;2023-08-20T09:36:16;3.22;;;1.30;;
40745;SDS011;26454;51.164;4.488;2023-08-20T09:38:43;2.95;;;1.20;;
40745;SDS011;26454;51.164;4.488;2023-08-20T09:41:09;4.75;;;1.60;;
40745;SDS011;26454;51.164;4.488;2023-08-20T09:43:37;4.18;;;1.17;;
40745;SDS011;26454;51.164;4.488;2023-08-20T09:46:03;5.32;;;1.25;;
40745;SDS011;26454;51.164;4.488;2023-08-20T09:48:33;4.57;;;1.77;;
40745;SDS011;26454;51.164;4.488;2023-08-20T09:51:00;5.65;;;1.40;;
40745;SDS011;26454;51.164;4.488;2023-08-20T09:53:34;6.35;;;1.83;;
40745;SDS011;26454;51.164;4.488;2023-08-20T09:56:03;4.50;;;1.40;;
40745;SDS011;26454;51.164;4.488;2023-08-20T09:58:32;6.15;;;1.83;;
40745;SDS011;26454;51.164;4.488;2023-08-20T10:00:58;6.45;;;1.20;;
40745;SDS011;26454;51.164;4.488;2023-08-20T10:03:24;4.75;;;1.48;;
40745;SDS011;26454;51.164;4.488;2023-08-20T10:05:50;5.18;;;1.17;;
40745;SDS011;26454;51.164;4.488;2023-08-20T10:08:17;7.93;;;1.80;;
40745;SDS011;26454;51.164;4.488;2023-08-20T10:10:43;2.00;;;1.25;;
40745;SDS011;26454;51.164;4.488;2023-08-20T10:13:10;4.50;;;1.10;;
40745;SDS011;26454;51.164;4.488;2023-08-20T10:15:38;4.80;;;1.38;;
40745;SDS011;26454;51.164;4.488;2023-08-20T10:18:07;3.80;;;1.38;;
40745;SDS011;26454;51.164;4.488;2023-08-20T10:20:33;2.17;;;0.90;;
40745;SDS011;26454;51.164;4.488;2023-08-20T10:23:00;2.33;;;0.85;;
40745;SDS011;26454;51.164;4.488;2023-08-20T10:25:26;2.60;;;0.98;;
40745;SDS011;26454;51.164;4.488;2023-08-20T10:27:54;3.47;;;1.20;;
40745;SDS011;26454;51.164;4.488;2023-08-20T10:30:24;3.22;;;1.05;;
40745;SDS011;26454;51.164;4.488;2023-08-20T10:32:51;4.10;;;1.38;;
40745;SDS011;26454;51.164;4.488;2023-08-20T10:35:19;3.70;;;1.58;;
40745;SDS011;26454;51.164;4.488;2023-08-20T10:43:01;6.70;;;1.70;;
40745;SDS011;26454;51.164;4.488;2023-08-20T10:45:27;3.83;;;1.33;;
40745;SDS011;26454;51.164;4.488;2023-08-20T10:47:53;2.40;;;1.17;;
40745;SDS011;26454;51.164;4.488;2023-08-20T10:50:19;2.63;;;1.23;;
40745;SDS011;26454;51.164;4.488;2023-08-20T10:52:47;2.58;;;1.23;;
40745;SDS011;26454;51.164;4.488;2023-08-20T10:55:14;3.35;;;1.75;;
40745;SDS011;26454;51.164;4.488;2023-08-20T10:57:40;6.05;;;1.20;;
40745;SDS011;26454;51.164;4.488;2023-08-20T11:00:07;7.25;;;1.50;;
40745;SDS011;26454;51.164;4.488;2023-08-20T11:02:36;6.20;;;2.10;;
40745;SDS011;26454;51.164;4.488;2023-08-20T11:05:03;5.47;;;1.60;;
40745;SDS011;26454;51.164;4.488;2023-08-20T11:07:29;4.88;;;1.27;;
40745;SDS011;26454;51.164;4.488;2023-08-20T11:09:57;7.80;;;2.72;;
40745;SDS011;26454;51.164;4.488;2023-08-20T11:12:23;7.03;;;1.90;;
40745;SDS011;26454;51.164;4.488;2023-08-20T11:14:49;5.55;;;1.83;;
40745;SDS011;26454;51.164;4.488;2023-08-20T11:17:15;4.63;;;1.63;;
40745;SDS011;26454;51.164;4.488;2023-08-20T11:19:41;3.35;;;1.63;;
40745;SDS011;26454;51.164;4.488;2023-08-20T11:22:07;5.65;;;1.77;;
40745;SDS011;26454;51.164;4.488;2023-08-20T11:24:34;5.13;;;1.50;;
40745;SDS011;26454;51.164;4.488;2023-08-20T11:29:29;3.67;;;1.42;;
40745;SDS011;26454;51.164;4.488;2023-08-20T11:31:56;5.25;;;1.40;;
40745;SDS011;26454;51.164;4.488;2023-08-20T11:34:22;5.00;;;1.48;;
40745;SDS011;26454;51.164;4.488;2023-08-20T11:36:51;3.45;;;1.48;;
40745;SDS011;26454;51.164;4.488;2023-08-20T11:39:18;3.83;;;1.40;;
40745;SDS011;26454;51.164;4.488;2023-08-20T11:41:44;3.45;;;1.30;;
40745;SDS011;26454;51.164;4.488;2023-08-20T11:44:10;5.38;;;1.45;;
40745;SDS011;26454;51.164;4.488;2023-08-20T11:46:44;2.78;;;1.05;;
40745;SDS011;26454;51.164;4.488;2023-08-20T11:49:10;4.97;;;1.35;;
40745;SDS011;26454;51.164;4.488;2023-08-20T11:51:38;3.47;;;1.23;;
40745;SDS011;26454;51.164;4.488;2023-08-20T11:54:05;2.97;;;1.48;;
40745;SDS011;26454;51.164;4.488;2023-08-20T11:56:32;5.25;;;1.67;;
40745;SDS011;26454;51.164;4.488;2023-08-20T11:58:59;3.88;;;1.17;;
40745;SDS011;26454;51.164;4.488;2023-08-20T12:01:29;5.05;;;1.73;;
40745;SDS011;26454;51.164;4.488;2023-08-20T12:04:03;6.00;;;1.25;;
40745;SDS011;26454;51.164;4.488;2023-08-20T12:06:30;2.67;;;1.20;;
40745;SDS011;26454;51.164;4.488;2023-08-20T12:08:57;2.00;;;0.88;;
40745;SDS011;26454;51.164;4.488;2023-08-20T12:11:24;4.88;;;1.35;;
40745;SDS011;26454;51.164;4.488;2023-08-20T12:13:51;7.32;;;1.35;;
40745;SDS011;26454;51.164;4.488;2023-08-20T12:16:17;5.30;;;1.40;;
40745;SDS011;26454;51.164;4.488;2023-08-20T12:18:45;4.22;;;1.50;;
40745;SDS011;26454;51.164;4.488;2023-08-20T12:21:12;3.88;;;1.15;;
40745;SDS011;26454;51.164;4.488;2023-08-20T12:23:38;5.97;;;1.48;;
40745;SDS011;26454;51.164;4.488;2023-08-20T12:26:04;2.15;;;1.15;;
40745;SDS011;26454;51.164;4.488;2023-08-20T12:28:30;5.18;;;1.30;;
40745;SDS011;26454;51.164;4.488;2023-08-20T12:30:56;8.63;;;1.67;;
40745;SDS011;26454;51.164;4.488;2023-08-20T12:33:23;4.28;;;1.00;;
40745;SDS011;26454;51.164;4.488;2023-08-20T12:35:49;5.97;;;1.27;;
40745;SDS011;26454;51.164;4.488;2023-08-20T12:38:15;4.88;;;1.40;;
40745;SDS011;26454;51.164;4.488;2023-08-20T12:40:41;3.13;;;1.13;;
40745;SDS011;26454;51.164;4.488;2023-08-20T12:43:07;3.60;;;1.40;;
40745;SDS011;26454;51.164;4.488;2023-08-20T12:45:33;4.30;;;1.35;;
40745;SDS011;26454;51.164;4.488;2023-08-20T12:47:59;3.47;;;1.02;;
40745;SDS011;26454;51.164;4.488;2023-08-20T12:50:25;3.08;;;1.05;;
40745;SDS011;26454;51.164;4.488;2023-08-20T12:52:51;2.63;;;1.20;;
40745;SDS011;26454;51.164;4.488;2023-08-20T12:55:18;4.35;;;0.90;;
40745;SDS011;26454;51.164;4.488;2023-08-20T12:57:52;3.13;;;1.40;;
40745;SDS011;26454;51.164;4.488;2023-08-20T13:00:19;3.13;;;1.00;;
40745;SDS011;26454;51.164;4.488;2023-08-20T13:02:45;3.97;;;1.10;;
40745;SDS011;26454;51.164;4.488;2023-08-20T13:05:12;4.97;;;1.40;;
40745;SDS011;26454;51.164;4.488;2023-08-20T13:07:38;5.32;;;1.55;;
40745;SDS011;26454;51.164;4.488;2023-08-20T13:10:05;5.28;;;1.30;;
40745;SDS011;26454;51.164;4.488;2023-08-20T13:12:31;2.50;;;1.17;;
40745;SDS011;26454;51.164;4.488;2023-08-20T13:14:58;2.42;;;1.10;;
40745;SDS011;26454;51.164;4.488;2023-08-20T13:17:24;3.03;;;1.05;;
40745;SDS011;26454;51.164;4.488;2023-08-20T13:19:51;5.50;;;0.98;;
40745;SDS011;26454;51.164;4.488;2023-08-20T13:22:17;3.65;;;1.20;;
40745;SDS011;26454;51.164;4.488;2023-08-20T13:24:43;2.92;;;0.88;;
40745;SDS011;26454;51.164;4.488;2023-08-20T13:27:09;3.05;;;0.60;;
40745;SDS011;26454;51.164;4.488;2023-08-20T13:29:35;5.13;;;1.10;;
40745;SDS011;26454;51.164;4.488;2023-08-20T13:32:01;4.03;;;1.08;;
40745;SDS011;26454;51.164;4.488;2023-08-20T13:34:28;3.92;;;0.85;;
40745;SDS011;26454;51.164;4.488;2023-08-20T13:36:54;3.15;;;0.80;;
40745;SDS011;26454;51.164;4.488;2023-08-20T13:39:21;3.47;;;0.80;;
40745;SDS011;26454;51.164;4.488;2023-08-20T13:41:48;2.80;;;0.98;;
40745;SDS011;26454;51.164;4.488;2023-08-20T13:44:16;4.10;;;1.38;;
40745;SDS011;26454;51.164;4.488;2023-08-20T13:46:42;4.32;;;0.75;;
40745;SDS011;26454;51.164;4.488;2023-08-20T13:49:08;3.35;;;1.00;;
40745;SDS011;26454;51.164;4.488;2023-08-20T13:51:34;2.78;;;0.90;;
40745;SDS011;26454;51.164;4.488;2023-08-20T13:54:00;3.72;;;1.00;;
40745;SDS011;26454;51.164;4.488;2023-08-20T13:56:26;2.00;;;0.90;;
40745;SDS011;26454;51.164;4.488;2023-08-20T13:58:53;5.95;;;1.02;;
40745;SDS011;26454;51.164;4.488;2023-08-20T14:01:22;2.65;;;1.17;;
40745;SDS011;26454;51.164;4.488;2023-08-20T14:03:48;3.85;;;0.77;;
40745;SDS011;26454;51.164;4.488;2023-08-20T14:06:15;3.85;;;1.10;;
40745;SDS011;26454;51.164;4.488;2023-08-20T14:08:41;5.20;;;1.00;;
40745;SDS011;26454;51.164;4.488;2023-08-20T14:11:07;3.60;;;0.90;;
40745;SDS011;26454;51.164;4.488;2023-08-20T14:13:34;1.90;;;0.75;;
40745;SDS011;26454;51.164;4.488;2023-08-20T14:16:00;5.47;;;1.05;;
40745;SDS011;26454;51.164;4.488;2023-08-20T14:18:27;2.92;;;1.20;;
40745;SDS011;26454;51.164;4.488;2023-08-20T14:20:53;3.15;;;1.10;;
40745;SDS011;26454;51.164;4.488;2023-08-20T14:23:19;2.85;;;0.90;;
40745;SDS011;26454;51.164;4.488;2023-08-20T14:25:45;3.15;;;0.80;;
40745;SDS011;26454;51.164;4.488;2023-08-20T14:28:11;3.55;;;1.20;;
40745;SDS011;26454;51.164;4.488;2023-08-20T14:30:38;2.88;;;1.10;;
40745;SDS011;26454;51.164;4.488;2023-08-20T14:33:05;2.65;;;0.70;;
40745;SDS011;26454;51.164;4.488;2023-08-20T14:35:31;2.22;;;0.82;;
40745;SDS011;26454;51.164;4.488;2023-08-20T14:37:58;1.45;;;0.57;;
40745;SDS011;26454;51.164;4.488;2023-08-20T14:40:24;3.45;;;1.45;;
40745;SDS011;26454;51.164;4.488;2023-08-20T14:42:50;1.98;;;0.70;;
40745;SDS011;26454;51.164;4.488;2023-08-20T14:45:16;2.55;;;0.70;;
40745;SDS011;26454;51.164;4.488;2023-08-20T14:47:44;2.20;;;0.80;;
40745;SDS011;26454;51.164;4.488;2023-08-20T14:50:10;2.97;;;1.33;;
40745;SDS011;26454;51.164;4.488;2023-08-20T14:52:36;3.25;;;1.38;;
40745;SDS011;26454;51.164;4.488;2023-08-20T14:55:02;2.85;;;0.93;;